08:36
Airports
History
Links
Donate
Help keep this website running!
PayPal
Bitcoin
Information on this page is community maintained and may be outdated or inaccurate and is intended for reference only or PC simulator navigating.
Always use approved charts for navigating.
NZPI
Parakai
Parakai (NZPI)
Parakai, Auckland, New Zealand (874)
4
Lat/Lng:36° 39' 6.87" S / 174° 26' 10.55" E
-36.651909 / 174.436264
Elevation:6'ft 2mMSL
ID / ICAO:NZPI
Runways:1
Longest:(07-25) 659.8m 2,165ft Grass
Distance To
Airport ID:
Nearby WeatherUpdated 03-09-17 00:00 GMT
Nearby weather at NZWP, Whenuapai located 14.4 nautical miles from NZPI
Altimeter: 29.97
Visibility: statute miles
Wind: 16 knots (080°)
Temp: 21°c 70°f
Humidity: 77.9%

METAR: NZWP 090000Z 08016KT 20KM VCSH SCT018 BKN025 21/17 Q1015 TEMPO FM0100 5000 RA SCT020TCU

(Powered by phpweather)
Runway 07 / 25
Dimensions:659.8 x 10.1m 2165' x 33'ft
Surface:Grass
Runway 07 [A]Runway 25 [B]
Heading:090°TH 270°TH
Lat:
Lng:
36° 39' 6.87"S
174° 25' 57.36"E
36° 39' 6.87"S
174° 26' 23.74"E
User Notes and Comments
Google Map
Nearby Airports
(C) North Shore 12.2 NM
NZNE E 91°
(C) Whenuapai 14.4 NM
NZWP (WX) SE 131°
(C) Hobsonville 15.8 NM
NZHB SE 127°
4 Kaipara Flats 18.9 NM
NZKF NNE 26°
(U) Springhill 23.6 NM
NZSL NNE 16°
4 Pikes Point 28.4 NM
NZPK SE 132°
(C) Auckland International 31.5 NM
NZAA (WX) SE 142°
VFR Chart
Flight Planning at SkyVector.com